createdAt,value
2022-11-23T00:02:19.830Z,1.65
2022-11-23T00:04:49.209Z,1.60
2022-11-23T00:07:19.238Z,1.42
2022-11-23T00:09:49.622Z,1.83
2022-11-23T00:12:21.043Z,1.33
2022-11-23T00:14:51.822Z,1.70
2022-11-23T00:17:21.914Z,1.70
2022-11-23T00:19:51.293Z,1.60
2022-11-23T00:22:20.749Z,1.98
2022-11-23T00:24:51.112Z,1.38
2022-11-23T00:27:24.816Z,1.63
2022-11-23T00:30:07.839Z,1.90
2022-11-23T00:32:40.904Z,1.25
2022-11-23T00:35:20.793Z,1.95
2022-11-23T00:38:00.666Z,2.03
2022-11-23T00:40:32.611Z,2.10
2022-11-23T00:43:10.781Z,2.08
2022-11-23T00:45:42.395Z,1.77
2022-11-23T00:48:15.003Z,2.15
2022-11-23T00:50:50.811Z,1.98
2022-11-23T00:53:27.194Z,1.50
2022-11-23T00:56:03.882Z,1.70
2022-11-23T00:58:32.979Z,2.25
2022-11-23T01:01:04.392Z,1.77
2022-11-23T01:03:36.765Z,1.85
2022-11-23T01:06:09.458Z,1.83
2022-11-23T01:08:38.234Z,1.90
2022-11-23T01:11:13.547Z,1.90
2022-11-23T01:13:46.565Z,2.42
2022-11-23T01:16:31.408Z,1.58
2022-11-23T01:19:02.561Z,1.80
2022-11-23T01:21:32.675Z,1.75
2022-11-23T01:24:05.846Z,1.80
2022-11-23T01:26:37.216Z,1.95
2022-11-23T01:29:08.822Z,2.13
2022-11-23T01:31:46.522Z,1.75
2022-11-23T01:34:16.883Z,1.70
2022-11-23T01:36:46.023Z,1.95
2022-11-23T01:39:18.667Z,2.13
2022-11-23T01:41:49.050Z,1.30
2022-11-23T01:44:32.209Z,2.03
2022-11-23T01:47:02.112Z,1.92
2022-11-23T01:49:35.515Z,2.05
2022-11-23T01:52:06.586Z,1.85
2022-11-23T01:54:40.049Z,1.92
2022-11-23T01:57:14.314Z,1.75
2022-11-23T01:59:42.971Z,1.70
2022-11-23T02:02:14.242Z,1.92
2022-11-23T02:04:45.085Z,1.85
2022-11-23T02:07:18.264Z,1.77
2022-11-23T02:09:47.511Z,1.88
2022-11-23T02:12:17.521Z,1.30
2022-11-23T02:14:46.538Z,1.70
2022-11-23T02:17:15.548Z,1.30
2022-11-23T02:19:51.513Z,1.63
2022-11-23T02:22:35.449Z,1.73
2022-11-23T02:25:09.179Z,1.90
2022-11-23T02:27:43.943Z,1.70
2022-11-23T02:30:17.209Z,1.50
2022-11-23T02:32:47.839Z,1.65
2022-11-23T02:35:17.715Z,1.45
2022-11-23T02:37:47.941Z,1.63
2022-11-23T02:40:30.261Z,1.33
2022-11-23T02:43:12.866Z,1.50
2022-11-23T02:45:46.253Z,1.30
2022-11-23T02:48:18.405Z,1.52
2022-11-23T02:50:47.480Z,1.75
2022-11-23T02:53:17.729Z,1.42
2022-11-23T02:55:50.368Z,1.58
2022-11-23T02:58:21.330Z,1.70
2022-11-23T03:00:52.152Z,1.40
2022-11-23T03:03:22.279Z,1.73
2022-11-23T03:05:52.849Z,1.35
2022-11-23T03:08:42.671Z,1.50
2022-11-23T03:11:24.158Z,1.73
2022-11-23T03:21:45.031Z,1.30
2022-11-23T03:24:15.431Z,1.48
2022-11-23T03:30:54.478Z,1.35
2022-11-23T03:33:28.673Z,1.42
2022-11-23T03:36:00.845Z,1.85
2022-11-23T03:38:34.052Z,1.40
2022-11-23T03:41:09.300Z,1.30
2022-11-23T03:43:50.653Z,1.58
2022-11-23T03:46:20.983Z,1.60
2022-11-23T03:48:49.898Z,2.00
2022-11-23T03:51:21.581Z,1.70
2022-11-23T03:53:51.866Z,1.58
2022-11-23T03:56:20.732Z,1.80
2022-11-23T03:58:52.030Z,1.55
2022-11-23T04:01:32.739Z,1.17
2022-11-23T04:04:08.663Z,1.60
2022-11-23T04:06:55.925Z,1.67
2022-11-23T04:09:40.937Z,1.63
2022-11-23T04:16:25.928Z,2.08
2022-11-23T04:18:58.828Z,2.13
2022-11-23T04:21:35.458Z,1.63
2022-11-23T04:24:07.310Z,1.77
2022-11-23T04:26:40.406Z,2.50
2022-11-23T04:29:11.970Z,5.25
2022-11-23T04:31:48.080Z,2.20
2022-11-23T04:34:21.660Z,3.00
2022-11-23T04:36:52.395Z,3.15
2022-11-23T04:39:32.475Z,2.88
2022-11-23T04:42:27.287Z,1.92
2022-11-23T04:44:59.615Z,2.60
2022-11-23T04:47:31.518Z,2.45
2022-11-23T04:50:07.273Z,1.95
2022-11-23T04:52:48.365Z,2.28
2022-11-23T04:55:28.335Z,1.95
2022-11-23T04:58:06.029Z,3.60
2022-11-23T05:00:43.396Z,4.05
2022-11-23T05:03:29.148Z,2.97
2022-11-23T05:06:11.754Z,1.95
2022-11-23T05:08:55.049Z,2.88
2022-11-23T05:12:03.564Z,2.97
2022-11-23T05:14:44.194Z,3.22
2022-11-23T05:17:23.272Z,3.10
2022-11-23T05:19:57.429Z,2.90
2022-11-23T05:22:30.152Z,3.40
2022-11-23T05:24:59.855Z,3.28
2022-11-23T05:27:31.550Z,2.58
2022-11-23T05:30:02.656Z,4.07
2022-11-23T05:32:32.984Z,2.90
2022-11-23T05:35:03.486Z,2.00
2022-11-23T05:37:35.330Z,2.65
2022-11-23T05:40:07.158Z,4.35
2022-11-23T05:42:43.671Z,2.60
2022-11-23T05:45:29.892Z,3.60
2022-11-23T05:48:03.954Z,4.78
2022-11-23T05:51:05.078Z,2.33
2022-11-23T05:53:41.465Z,4.90
2022-11-23T05:56:30.359Z,2.80
2022-11-23T05:59:23.764Z,3.63
2022-11-23T06:02:01.494Z,1.83
2022-11-23T06:04:41.670Z,2.45
2022-11-23T06:07:23.311Z,2.55
2022-11-23T06:10:16.735Z,4.65
2022-11-23T06:12:51.771Z,3.03
2022-11-23T06:15:24.707Z,2.42
2022-11-23T06:22:07.199Z,2.10
2022-11-23T06:24:43.356Z,2.83
2022-11-23T06:27:45.712Z,6.00
2022-11-23T06:30:28.546Z,3.28
2022-11-23T06:33:06.757Z,2.90
2022-11-23T06:35:42.648Z,2.83
2022-11-23T06:38:14.740Z,2.97
2022-11-23T06:40:46.921Z,2.08
2022-11-23T06:43:18.272Z,1.90
2022-11-23T06:45:49.964Z,2.75
2022-11-23T06:48:20.322Z,1.80
2022-11-23T06:50:53.123Z,1.60
2022-11-23T06:53:26.483Z,1.85
2022-11-23T06:56:12.566Z,2.20
2022-11-23T06:58:53.258Z,2.45
2022-11-23T07:06:02.105Z,2.55
2022-11-23T07:08:32.322Z,2.17
2022-11-23T07:15:10.914Z,1.95
2022-11-23T07:17:40.933Z,2.30
2022-11-23T07:20:19.276Z,2.33
2022-11-23T07:22:48.977Z,2.42
2022-11-23T07:25:31.928Z,2.70
2022-11-23T07:28:09.542Z,1.88
2022-11-23T07:30:41.104Z,2.58
2022-11-23T07:33:14.105Z,1.98
2022-11-23T07:35:43.749Z,2.08
2022-11-23T07:38:13.351Z,1.55
2022-11-23T07:40:45.916Z,1.55
2022-11-23T07:43:26.470Z,2.67
2022-11-23T07:45:58.568Z,2.40
2022-11-23T07:48:36.142Z,2.15
2022-11-23T07:51:08.042Z,2.13
2022-11-23T07:53:36.869Z,2.25
2022-11-23T07:56:07.396Z,2.55
2022-11-23T07:58:38.944Z,2.70
2022-11-23T08:01:11.716Z,6.90
2022-11-23T08:03:41.544Z,6.70
2022-11-23T08:06:12.048Z,5.90
2022-11-23T08:08:41.543Z,2.78
2022-11-23T08:11:14.612Z,2.60
2022-11-23T08:13:44.675Z,2.10
2022-11-23T08:16:15.446Z,3.33
2022-11-23T08:18:47.880Z,7.95
2022-11-23T08:21:16.238Z,16.90
2022-11-23T08:23:45.126Z,17.45
2022-11-23T08:26:15.256Z,12.35
2022-11-23T08:28:45.393Z,15.35
2022-11-23T08:31:15.446Z,5.75
2022-11-23T08:33:43.843Z,8.93
2022-11-23T08:36:13.527Z,5.93
2022-11-23T08:38:42.332Z,2.80
2022-11-23T08:41:11.528Z,2.55
2022-11-23T08:43:40.318Z,2.40
2022-11-23T08:46:11.229Z,2.35
2022-11-23T08:48:45.689Z,1.85
2022-11-23T08:51:14.805Z,2.47
2022-11-23T08:53:43.386Z,1.92
2022-11-23T08:56:12.293Z,1.88
2022-11-23T08:58:41.321Z,1.80
2022-11-23T09:01:13.477Z,2.00
2022-11-23T09:03:45.015Z,1.95
2022-11-23T09:06:13.973Z,1.85
2022-11-23T09:08:43.733Z,2.17
2022-11-23T09:11:18.575Z,1.95
2022-11-23T09:13:47.392Z,2.25
2022-11-23T09:16:17.928Z,1.60
2022-11-23T09:18:50.048Z,1.98
2022-11-23T09:21:22.433Z,1.88
2022-11-23T09:23:54.764Z,1.63
2022-11-23T09:26:27.062Z,3.17
2022-11-23T09:29:00.219Z,2.38
2022-11-23T09:31:30.595Z,1.95
2022-11-23T09:34:01.971Z,2.90
2022-11-23T09:36:41.075Z,2.25
2022-11-23T09:39:11.852Z,2.10
2022-11-23T09:41:52.393Z,2.08
2022-11-23T09:44:25.063Z,2.10
2022-11-23T09:47:02.519Z,1.90
2022-11-23T09:49:41.046Z,2.13
2022-11-23T09:52:15.604Z,1.70
2022-11-23T09:54:56.805Z,1.77
2022-11-23T09:57:32.615Z,1.90
2022-11-23T10:00:16.557Z,1.77
2022-11-23T10:02:46.700Z,1.63
2022-11-23T10:05:34.566Z,1.85
2022-11-23T10:08:06.870Z,1.70
2022-11-23T10:10:42.468Z,1.85
2022-11-23T10:13:21.606Z,2.67
2022-11-23T10:15:55.502Z,1.70
2022-11-23T10:18:32.599Z,1.60
2022-11-23T10:21:15.339Z,1.60
2022-11-23T10:23:54.139Z,1.40
2022-11-23T10:26:25.348Z,1.70
2022-11-23T10:28:58.203Z,1.38
2022-11-23T10:31:27.843Z,1.60
2022-11-23T10:33:58.272Z,1.85
2022-11-23T10:36:30.924Z,1.40
2022-11-23T10:39:13.588Z,1.23
2022-11-23T10:41:46.783Z,1.45
2022-11-23T10:44:28.995Z,1.70
2022-11-23T10:47:00.262Z,1.65
2022-11-23T10:49:33.325Z,1.40
2022-11-23T10:52:06.395Z,1.90
2022-11-23T10:54:37.139Z,1.55
2022-11-23T10:57:24.611Z,1.63
2022-11-23T11:00:00.458Z,1.40
2022-11-23T11:02:40.671Z,1.70
2022-11-23T11:08:33.070Z,1.38
2022-11-23T11:11:06.709Z,1.33
2022-11-23T11:13:45.283Z,1.98
2022-11-23T11:16:26.563Z,1.33
2022-11-23T11:18:59.172Z,1.33
2022-11-23T11:21:34.892Z,1.30
2022-11-23T11:24:06.886Z,1.30
2022-11-23T11:26:41.754Z,1.15
2022-11-23T11:29:30.752Z,1.40
2022-11-23T11:32:12.510Z,1.35
2022-11-23T11:34:47.735Z,1.33
2022-11-23T11:37:42.139Z,1.30
2022-11-23T11:40:28.094Z,1.17
2022-11-23T11:43:04.061Z,2.20
2022-11-23T11:45:43.568Z,1.30
2022-11-23T11:48:30.053Z,1.35
2022-11-23T11:51:06.559Z,1.13
2022-11-23T11:53:38.421Z,1.25
2022-11-23T11:56:14.435Z,1.20
2022-11-23T11:58:54.705Z,1.30
2022-11-23T12:04:11.364Z,1.15
2022-11-23T12:06:45.357Z,1.55
2022-11-23T12:09:18.376Z,1.38
2022-11-23T12:11:48.940Z,1.17
2022-11-23T12:14:22.414Z,1.20
2022-11-23T12:17:17.040Z,0.90
2022-11-23T12:19:50.038Z,1.02
2022-11-23T12:22:28.767Z,0.90
2022-11-23T12:25:20.709Z,1.30
2022-11-23T12:27:57.633Z,0.80
2022-11-23T12:30:29.534Z,0.93
2022-11-23T12:33:10.815Z,1.20
2022-11-23T12:35:53.617Z,0.90
2022-11-23T12:39:11.006Z,1.02
2022-11-23T12:45:20.138Z,0.80
2022-11-23T12:47:55.709Z,0.90
2022-11-23T12:50:29.564Z,0.82
2022-11-23T12:57:11.939Z,1.00
2022-11-23T12:59:46.153Z,0.80
2022-11-23T13:02:45.415Z,0.75
2022-11-23T13:05:30.909Z,0.80
2022-11-23T13:08:13.895Z,0.73
2022-11-23T13:10:50.030Z,0.70
2022-11-23T13:13:26.657Z,0.60
2022-11-23T13:16:15.564Z,0.60
2022-11-23T13:18:58.919Z,0.60
2022-11-23T13:21:38.233Z,0.70
2022-11-23T13:24:09.962Z,1.80
2022-11-23T13:26:41.507Z,2.33
2022-11-23T13:29:38.018Z,3.05
2022-11-23T13:32:21.583Z,1.00
2022-11-23T13:34:52.364Z,0.90
2022-11-23T13:37:24.167Z,0.85
2022-11-23T13:40:05.023Z,1.00
2022-11-23T13:42:36.317Z,1.13
2022-11-23T13:45:36.049Z,0.80
2022-11-23T13:51:04.036Z,0.70
2022-11-23T13:53:35.772Z,1.00
2022-11-23T13:56:31.648Z,0.90
2022-11-23T13:59:18.773Z,0.70
2022-11-23T14:02:04.688Z,0.80
2022-11-23T14:04:33.965Z,1.38
2022-11-23T14:07:06.693Z,1.10
2022-11-23T14:09:54.754Z,1.00
2022-11-23T14:12:38.378Z,0.90
2022-11-23T14:15:14.125Z,0.90
2022-11-23T14:17:54.432Z,0.70
2022-11-23T14:20:34.978Z,1.27
2022-11-23T14:23:14.077Z,1.00
2022-11-23T14:25:50.907Z,1.02
2022-11-23T14:28:25.509Z,0.88
2022-11-23T14:31:01.861Z,1.08
2022-11-23T14:33:43.546Z,0.85
2022-11-23T14:36:28.683Z,0.93
2022-11-23T14:39:29.988Z,1.25
2022-11-23T14:42:07.095Z,1.00
2022-11-23T14:44:46.656Z,0.77
2022-11-23T14:47:31.622Z,1.00
2022-11-23T14:50:14.389Z,0.63
2022-11-23T14:52:52.828Z,0.70
2022-11-23T14:55:27.157Z,0.85
2022-11-23T14:58:09.034Z,0.88
2022-11-23T15:00:45.768Z,0.80
2022-11-23T15:03:48.794Z,0.80
2022-11-23T15:06:09.517Z,0.90
2022-11-23T15:08:46.144Z,0.88
2022-11-23T15:11:18.400Z,0.85
2022-11-23T15:13:49.519Z,1.27
2022-11-23T15:16:22.434Z,1.17
2022-11-23T15:18:52.180Z,1.02
2022-11-23T15:21:27.286Z,1.00
2022-11-23T15:23:59.950Z,1.00
2022-11-23T15:26:48.889Z,0.80
2022-11-23T15:29:38.245Z,0.85
2022-11-23T15:32:30.534Z,1.10
2022-11-23T15:35:05.953Z,1.10
2022-11-23T15:37:40.216Z,0.80
2022-11-23T15:40:15.988Z,1.48
2022-11-23T15:42:48.935Z,1.00
2022-11-23T15:45:39.953Z,1.10
2022-11-23T15:48:14.359Z,1.00
2022-11-23T15:50:52.691Z,0.93
2022-11-23T15:53:37.980Z,1.30
2022-11-23T15:56:13.408Z,1.30
2022-11-23T15:58:58.244Z,1.30
2022-11-23T16:01:29.915Z,1.40
2022-11-23T16:04:09.712Z,0.82
2022-11-23T16:06:40.565Z,1.60
2022-11-23T16:09:50.489Z,1.80
2022-11-23T16:12:31.300Z,1.50
2022-11-23T16:15:22.009Z,1.52
2022-11-23T16:18:14.775Z,1.52
2022-11-23T16:20:54.655Z,1.25
2022-11-23T16:23:41.669Z,1.05
2022-11-23T16:26:13.179Z,1.23
2022-11-23T16:28:56.510Z,1.30
2022-11-23T16:31:35.152Z,1.70
2022-11-23T16:34:10.986Z,1.25
2022-11-23T16:36:52.592Z,1.17
2022-11-23T16:39:27.810Z,1.50
2022-11-23T16:42:06.089Z,1.27
2022-11-23T16:44:41.859Z,1.20
2022-11-23T16:47:30.231Z,1.05
2022-11-23T16:50:01.075Z,1.67
2022-11-23T16:52:30.412Z,1.73
2022-11-23T16:54:59.221Z,2.78
2022-11-23T16:57:31.969Z,2.20
2022-11-23T17:00:04.645Z,1.85
2022-11-23T17:02:34.580Z,1.88
2022-11-23T17:05:14.075Z,1.77
2022-11-23T17:07:42.776Z,2.20
2022-11-23T17:10:13.514Z,1.95
2022-11-23T17:12:48.200Z,1.70
2022-11-23T17:15:19.973Z,1.10
2022-11-23T17:17:50.175Z,1.40
2022-11-23T17:20:22.982Z,1.58
2022-11-23T17:22:52.978Z,1.38
2022-11-23T17:25:24.831Z,1.75
2022-11-23T17:27:54.650Z,1.80
2022-11-23T17:30:28.676Z,2.40
2022-11-23T17:33:05.567Z,2.22
2022-11-23T17:35:44.908Z,3.40
2022-11-23T17:38:28.164Z,3.03
2022-11-23T17:41:00.051Z,3.10
2022-11-23T17:43:38.112Z,3.67
2022-11-23T17:46:13.360Z,4.53
2022-11-23T17:48:43.679Z,3.22
2022-11-23T17:51:15.299Z,2.63
2022-11-23T17:53:47.808Z,2.72
2022-11-23T17:56:21.133Z,2.03
2022-11-23T17:58:50.758Z,2.00
2022-11-23T18:01:21.011Z,1.60
2022-11-23T18:03:59.424Z,1.95
2022-11-23T18:06:30.904Z,2.13
2022-11-23T18:09:04.363Z,2.42
2022-11-23T18:11:37.343Z,1.88
2022-11-23T18:14:10.478Z,2.15
2022-11-23T18:16:40.937Z,2.13
2022-11-23T18:19:09.531Z,1.92
2022-11-23T18:21:39.236Z,2.03
2022-11-23T18:24:12.157Z,2.22
2022-11-23T18:26:41.814Z,1.90
2022-11-23T18:29:16.890Z,2.17
2022-11-23T18:31:46.533Z,2.88
2022-11-23T18:34:18.265Z,2.05
2022-11-23T18:36:50.710Z,2.55
2022-11-23T18:39:23.362Z,2.00
2022-11-23T18:41:58.965Z,2.28
2022-11-23T18:44:40.388Z,2.50
2022-11-23T18:47:12.814Z,2.42
2022-11-23T18:49:47.203Z,2.38
2022-11-23T18:52:17.874Z,2.63
2022-11-23T18:54:46.216Z,2.95
2022-11-23T18:57:17.553Z,2.65
2022-11-23T18:59:57.846Z,2.80
2022-11-23T19:02:34.564Z,2.88
2022-11-23T19:05:02.936Z,2.17
2022-11-23T19:07:35.006Z,2.45
2022-11-23T19:10:07.136Z,2.13
2022-11-23T19:12:36.570Z,2.88
2022-11-23T19:15:08.450Z,3.35
2022-11-23T19:22:00.101Z,2.45
2022-11-23T19:24:29.796Z,3.00
2022-11-23T19:26:59.487Z,2.65
2022-11-23T19:29:29.277Z,2.92
2022-11-23T19:31:58.454Z,7.32
2022-11-23T19:34:27.376Z,10.20
2022-11-23T19:37:01.886Z,15.13
2022-11-23T19:39:33.932Z,14.55
2022-11-23T19:42:06.078Z,12.35
2022-11-23T19:44:36.201Z,8.25
2022-11-23T19:47:13.744Z,8.68
2022-11-23T19:49:44.030Z,9.32
2022-11-23T19:52:12.605Z,4.00
2022-11-23T19:54:42.486Z,2.88
2022-11-23T19:57:11.051Z,3.17
2022-11-23T19:59:40.354Z,2.67
2022-11-23T20:02:08.803Z,2.70
2022-11-23T20:04:37.590Z,3.20
2022-11-23T20:07:06.648Z,2.50
2022-11-23T20:09:35.701Z,3.28
2022-11-23T20:12:05.854Z,3.13
2022-11-23T20:14:34.483Z,3.58
2022-11-23T20:17:03.441Z,6.70
2022-11-23T20:19:32.226Z,6.55
2022-11-23T20:22:01.093Z,5.10
2022-11-23T20:24:29.551Z,4.50
2022-11-23T20:26:58.291Z,4.68
2022-11-23T20:29:28.886Z,4.53
2022-11-23T20:31:58.458Z,4.43
2022-11-23T20:34:27.368Z,4.30
2022-11-23T20:36:55.823Z,4.18
2022-11-23T20:39:24.298Z,4.43
2022-11-23T20:41:53.030Z,5.10
2022-11-23T20:44:38.050Z,4.90
2022-11-23T20:47:08.933Z,4.65
2022-11-23T20:49:39.424Z,4.28
2022-11-23T20:52:08.490Z,4.95
2022-11-23T20:54:37.569Z,4.57
2022-11-23T20:57:06.792Z,4.75
2022-11-23T20:59:35.632Z,4.22
2022-11-23T21:02:06.047Z,4.88
2022-11-23T21:04:36.366Z,5.00
2022-11-23T21:07:06.104Z,4.75
2022-11-23T21:09:37.814Z,5.28
2022-11-23T21:12:26.238Z,4.80
2022-11-23T21:14:58.237Z,5.32
2022-11-23T21:17:29.562Z,4.85
2022-11-23T21:19:59.534Z,5.05
2022-11-23T21:22:28.808Z,5.72
2022-11-23T21:24:57.856Z,4.90
2022-11-23T21:27:28.183Z,5.00
2022-11-23T21:29:57.402Z,4.72
2022-11-23T21:32:28.574Z,4.93
2022-11-23T21:35:00.792Z,4.90
2022-11-23T21:37:30.643Z,4.80
2022-11-23T21:39:59.095Z,5.47
2022-11-23T21:42:29.491Z,5.35
2022-11-23T21:45:01.951Z,5.13
2022-11-23T21:47:31.191Z,4.97
2022-11-23T21:50:05.651Z,5.03
2022-11-23T21:52:38.655Z,4.82
2022-11-23T21:55:10.429Z,5.13
2022-11-23T21:57:39.468Z,5.25
2022-11-23T22:00:09.593Z,4.63
2022-11-23T22:02:41.624Z,5.13
2022-11-23T22:05:15.712Z,4.90
2022-11-23T22:08:00.425Z,6.80
2022-11-23T22:10:33.128Z,5.55
2022-11-23T22:13:11.017Z,5.32
2022-11-23T22:15:41.210Z,4.72
2022-11-23T22:18:14.277Z,5.50
2022-11-23T22:20:45.922Z,4.85
2022-11-23T22:23:16.101Z,4.80
2022-11-23T22:25:48.287Z,4.95
2022-11-23T22:28:19.734Z,5.07
2022-11-23T22:30:57.337Z,5.57
2022-11-23T22:33:27.296Z,5.13
2022-11-23T22:36:00.068Z,5.30
2022-11-23T22:38:30.373Z,6.32
2022-11-23T22:41:01.013Z,4.53
2022-11-23T22:43:32.183Z,5.10
2022-11-23T22:46:12.339Z,4.22
2022-11-23T22:48:47.538Z,3.88
2022-11-23T22:51:18.112Z,4.72
2022-11-23T22:53:48.361Z,4.30
2022-11-23T22:56:18.084Z,4.88
2022-11-23T22:58:47.559Z,4.03
2022-11-23T23:01:17.660Z,3.80
2022-11-23T23:03:47.159Z,3.85
2022-11-23T23:06:19.421Z,3.80
2022-11-23T23:08:50.326Z,3.20
2022-11-23T23:11:18.837Z,3.80
2022-11-23T23:13:49.727Z,3.50
2022-11-23T23:16:18.906Z,4.10
2022-11-23T23:18:52.371Z,3.50
2022-11-23T23:21:30.623Z,3.47
2022-11-23T23:24:00.849Z,3.70
2022-11-23T23:26:30.127Z,3.88
2022-11-23T23:29:00.656Z,3.72
2022-11-23T23:31:31.109Z,3.38
2022-11-23T23:34:01.290Z,3.70
2022-11-23T23:36:36.092Z,3.30
2022-11-23T23:39:06.483Z,3.72
2022-11-23T23:41:35.057Z,2.92
2022-11-23T23:44:04.285Z,3.40
2022-11-23T23:46:33.733Z,3.70
2022-11-23T23:49:04.166Z,3.50
2022-11-23T23:51:38.181Z,2.95
2022-11-23T23:54:15.785Z,3.25
2022-11-23T23:56:50.427Z,3.45
2022-11-23T23:59:28.017Z,3.75
